サイパン島 の空港の天気 - METARとTAF

サイパン国際空港 ( PGSN / SPN ) - 北マリアナ諸島 サイパン島
飛行場実況気象(Metar)
観測時間03/26 16:54 ChST (03/26 06:54 UTC)
風向・風速東 7m/s
視程10km以上
天気現象
少しの雲 雲底高度 730m
気温28.9℃
湿度70%
気圧1015.4hPa
METARPGSN 260654Z 09014KT 10SM FEW024 29/23 A2992 RMK AO2 SLP154 T02890228 $
過去の天気等 Google飛行場航空写真 Wunderground天気予報

過去48時間のMETAR

飛行場予報(TAF)
発表時間: 3/26 15:31 ChST (3/26 05:31 UTC)
予報対象時間: 26日16時 ChST ~ 27日16時 ChST
風向・風速東 6m/s
視程10km以上
全天の4割程度の雲 雲底高度 670m
TAF PGSN 260531Z 2606/2706 09011KT P6SM SCT022